Antonia B — V2DF9 — position and weather

sailwx.info

Track history (hours):
 
Tides and Currents Weather Stations Pressure Air Temp Water Temp Dewpoint Dewpoint Depression Visibility Wind Speed Wind Dir Waves Ship Positions

Antonia B

Last reported at 2018-Jan-12 09:41 UTC. Time now 2018-Jan-19 02:03 UTC.
Position N 51°24' E 000°33'.

Length 97 m; draft 4.4 m.

Type: Cargo ship. MMSI: 305201000.

Date/timePositionNaut miles runAvg speedWind from/ knotsBaromVisibWave heightAir tempDewpointWater temp
2018-Jan-12 09:41N 51°24' E 000°33'0 0.0
2018-Jan-12 09:14N 51°24' E 000°33'0 0.0
2018-Jan-12 07:47N 51°24' E 000°33'0 0.0
2018-Jan-12 07:17N 51°24' E 000°33'0 0.0
2018-Jan-12 06:59N 51°24' E 000°33'0 0.0
2018-Jan-12 06:26N 51°24' E 000°33'0 0.0
2018-Jan-12 05:50N 51°24' E 000°33'0 0.0
2018-Jan-12 05:23N 51°24' E 000°33'0 0.0
2018-Jan-12 04:58N 51°24' E 000°33'0 0.0
2018-Jan-12 03:10N 51°24' E 000°33'0 0.0
2018-Jan-12 02:58N 51°24' E 000°33'0 0.0
2018-Jan-12 02:16N 51°24' E 000°33'0 0.0
2018-Jan-12 01:40N 51°24' E 000°33'0 0.0
2018-Jan-12 01:28N 51°24' E 000°33'0 0.0
2018-Jan-12 00:58N 51°24' E 000°33'0 0.0
2018-Jan-12 00:16N 51°24' E 000°33'0 0.0
2018-Jan-11 23:52N 51°24' E 000°33'0 0.0
2018-Jan-11 23:16N 51°24' E 000°33'0 0.0
2018-Jan-11 22:46N 51°24' E 000°33'0 0.0
2018-Jan-11 22:25N 51°24' E 000°33'0 0.4
2018-Jan-11 21:58N 51°24' E 000°33'0 0.0
2018-Jan-11 21:28N 51°24' E 000°33'0 0.0
2018-Jan-11 20:58N 51°24' E 000°33'0 0.0
2018-Jan-11 20:28N 51°24' E 000°33'0 0.0
2018-Jan-11 19:58N 51°24' E 000°33'0 0.0
2018-Jan-11 19:28N 51°24' E 000°33'0 0.0
2018-Jan-11 18:58N 51°24' E 000°33'0 0.0
2018-Jan-11 18:28N 51°24' E 000°33'0 0.0
2018-Jan-11 17:58N 51°24' E 000°33'0 0.0
2018-Jan-11 17:28N 51°24' E 000°33'0 0.0
2018-Jan-11 16:58N 51°24' E 000°33'0 0.0
2018-Jan-11 16:28N 51°24' E 000°33'0 0.0
2018-Jan-11 15:55N 51°24' E 000°33'0 0.0
2018-Jan-11 15:28N 51°24' E 000°33'0 0.0
2018-Jan-11 14:55N 51°24' E 000°33'0 0.0
2018-Jan-11 14:28N 51°24' E 000°33'0 0.0
2018-Jan-11 13:58N 51°24' E 000°33'0 0.0
2018-Jan-11 13:28N 51°24' E 000°33'0 0.0
2018-Jan-11 12:52N 51°24' E 000°33'0 0.0
2018-Jan-11 12:28N 51°24' E 000°33'0 0.0
2018-Jan-11 11:58N 51°24' E 000°33'  
2018-Jan-08 17:27N 51°27' E 000°44'3 2.2
2018-Jan-08 15:53N 51°28' E 000°50'512.0
2018-Jan-08 15:30N 51°29' E 000°57'714.1
2018-Jan-08 15:00N 51°29' E 001°08'713.8
2018-Jan-08 14:30N 51°29' E 001°19'612.8
2018-Jan-08 14:00N 51°27' E 001°29'4 8.5
2018-Jan-08 13:30N 51°23' E 001°33'4 7.5
2018-Jan-08 13:00N 51°27' E 001°34'4 8.9
2018-Jan-08 12:30N 51°30' E 001°39'4 8.4
2018-Jan-08 12:00N 51°31' E 001°46'4 8.6
2018-Jan-08 11:30N 51°33' E 001°52'5 9.1
2018-Jan-08 11:00N 51°35' E 001°59'2 3.6
2018-Jan-08 10:30N 51°34' E 001°56'2 5.0
2018-Jan-08 10:00N 51°33' E 001°52'3 5.1
2018-Jan-08 09:30N 51°32' E 001°48'3 5.3
2018-Jan-08 09:00N 51°31' E 001°44'2 3.3
2018-Jan-08 08:30N 51°31' E 001°42'3 5.9
2018-Jan-08 08:00N 51°33' E 001°45'3 5.9
2018-Jan-08 07:30N 51°36' E 001°48'3 5.9
2018-Jan-08 07:00N 51°38' E 001°51'3 5.4
2018-Jan-08 06:30N 51°40' E 001°54'3 5.2
2018-Jan-08 06:00N 51°42' E 001°57'1 2.3
2018-Jan-08 05:28N 51°41' E 001°56'2 5.0
2018-Jan-08 05:00N 51°39' E 001°54'2 4.5
2018-Jan-08 04:30N 51°37' E 001°52'2 3.8
2018-Jan-08 04:00N 51°35' E 001°50'2 3.5
2018-Jan-08 03:31N 51°34' E 001°48'2 3.0
2018-Jan-08 03:00N 51°33' E 001°47'0 0.7
2018-Jan-08 02:30N 51°32' E 001°47'4 8.2
2018-Jan-08 02:00N 51°36' E 001°49'1 2.1
2018-Jan-08 01:30N 51°35' E 001°50'1 2.0
2018-Jan-08 01:00N 51°34' E 001°50'1 1.3
2018-Jan-08 00:30N 51°34' E 001°50'1 1.3
2018-Jan-08 00:00N 51°34' E 001°49'1 1.2
2018-Jan-07 23:31N 51°34' E 001°48'1 1.4
2018-Jan-07 23:00N 51°33' E 001°47'1 1.7
2018-Jan-07 22:30N 51°33' E 001°46'1 1.8
2018-Jan-07 22:00N 51°32' E 001°44'1 1.9
2018-Jan-07 21:30N 51°32' E 001°43'3 5.6
2018-Jan-07 21:00N 51°33' E 001°47'4 7.4
2018-Jan-07 20:30N 51°35' E 001°52'3 6.9
2018-Jan-07 20:00N 51°37' E 001°57'3 6.7
2018-Jan-07 19:30N 51°40' E 002°00'3 6.2
2018-Jan-07 19:00N 51°42' E 002°03'1 2.5
2018-Jan-07 18:31N 51°41' E 002°02'2 3.5
2018-Jan-07 18:00N 51°40' E 001°59'2 3.7
2018-Jan-07 17:30N 51°39' E 001°57'2 3.9
2018-Jan-07 17:00N 51°38' E 001°54'2 3.5
2018-Jan-07 16:30N 51°37' E 001°52'2 3.1
2018-Jan-07 16:00N 51°37' E 001°50'1 2.5
2018-Jan-07 15:31N 51°36' E 001°48'1 2.3
2018-Jan-07 15:00N 51°35' E 001°47'1 2.3
2018-Jan-07 14:30N 51°34' E 001°47'1 1.9
2018-Jan-07 14:00N 51°33' E 001°47'1 1.7
2018-Jan-07 13:30N 51°32' E 001°47'1 1.3
2018-Jan-07 13:00N 51°31' E 001°46'1 2.1
2018-Jan-07 12:30N 51°31' E 001°44'1 1.3
2018-Jan-07 12:00N 51°31' E 001°44'1 1.6
2018-Jan-07 11:31N 51°30' E 001°43'2 3.5
2018-Jan-07 11:00N 51°31' E 001°45'4 8.8
2018-Jan-07 10:30N 51°34' E 001°50'2 3.7
2018-Jan-07 10:00N 51°36' E 001°52'1 2.5
2018-Jan-07 09:30N 51°35' E 001°50'2 3.2
2018-Jan-07 09:00N 51°36' E 001°52'3 6.8
2018-Jan-07 08:30N 51°39' E 001°56'4 8.5
2018-Jan-07 08:00N 51°42' E 002°01'5 9.3
2018-Jan-07 07:29N 51°46' E 002°06'13910.4
2018-Jan-06 18:06N 53°28' E 004°40'112.4
2018-Jan-06 17:59N 53°29' E 004°42'612.8
2018-Jan-06 17:28N 53°31' E 004°52'613.3
2018-Jan-06 17:00N 53°33' E 005°02'10012.2
2018-Jan-06 08:50N 54°01' E 007°44'412.7
2018-Jan-06 08:30N 54°01' E 007°52'612.3
2018-Jan-06 08:00N 54°01' E 008°02'712.5
2018-Jan-06 07:27N 54°00' E 008°14'613.6
2018-Jan-06 06:59N 53°59' E 008°24'715.1
2018-Jan-06 06:30N 53°58' E 008°36'815.5
2018-Jan-06 06:00N 53°52' E 008°45'713.2
2018-Jan-06 05:30N 53°51' E 008°56'612.4
2018-Jan-06 05:01N 53°53' E 009°06'2 4.0
2018-Jan-06 04:31N 53°54' E 009°09'0 0.0
2018-Jan-06 04:00N 53°54' E 009°09'1 1.6
2018-Jan-06 03:31N 53°54' E 009°10'1 1.3
2018-Jan-06 03:01N 53°55' E 009°11'3 5.5
2018-Jan-06 02:30N 53°57' E 009°14'3 6.6
2018-Jan-06 02:01N 53°59' E 009°17'3 6.5
2018-Jan-06 01:30N 54°02' E 009°18'3 5.8
2018-Jan-06 00:59N 54°05' E 009°19'3 6.5
2018-Jan-06 00:30N 54°08' E 009°21'1 2.0
2018-Jan-06 00:00N 54°09' E 009°22'0 0.0
2018-Jan-05 23:30N 54°09' E 009°22'0 0.8
2018-Jan-05 23:00N 54°09' E 009°23'3 5.2
2018-Jan-05 22:30N 54°10' E 009°27'3 6.8
2018-Jan-05 22:00N 54°12' E 009°32'3 6.9
2018-Jan-05 21:30N 54°14' E 009°36'3 6.3
2018-Jan-05 21:00N 54°17' E 009°38'3 6.1
2018-Jan-05 20:30N 54°19' E 009°43'3 6.3
2018-Jan-05 20:00N 54°21' E 009°46'7 6.1
2018-Jan-05 18:50N 54°21' E 009°58'25 7.2
2018-Jan-05 15:24N 54°34' E 010°34'410.2
2018-Jan-05 15:00N 54°35' E 010°40'510.7
2018-Jan-05 14:30N 54°35' E 010°50'510.8
2018-Jan-05 14:00N 54°36' E 010°59'510.9
2018-Jan-05 13:30N 54°36' E 011°08'511.0
2018-Jan-05 13:00N 54°35' E 011°17'611.1
2018-Jan-05 12:30N 54°33' E 011°26'510.3
2018-Jan-05 12:00N 54°31' E 011°35'510.8
2018-Jan-05 11:30N 54°29' E 011°43'15 9.8
2018-Jan-05 10:01N 54°28' E 012°08'0 9.8
2018-Jan-05 10:00N 54°28' E 012°09'5 9.6
2018-Jan-05 09:30N 54°32' E 012°12'510.2
2018-Jan-05 09:00N 54°37' E 012°15'5 9.8
2018-Jan-05 08:30N 54°40' E 012°21'5610.8
2018-Jan-05 03:17N 55°02' E 013°51'511.8
2018-Jan-05 02:53N 55°04' E 013°59'511.2
2018-Jan-05 02:27N 55°06' E 014°06'811.8
2018-Jan-05 01:44N 55°13' E 014°15'312.2
2018-Jan-05 01:30N 55°15' E 014°18'612.0
2018-Jan-05 01:00N 55°20' E 014°25'611.9
2018-Jan-05 00:28N 55°25' E 014°31'511.6
2018-Jan-05 00:00N 55°30' E 014°34'712.1
2018-Jan-04 23:24N 55°37' E 014°39'2211.7
2018-Jan-04 21:31N 55°58' E 014°52'111.2
2018-Jan-04 21:26N 55°58' E 014°53'510.8
2018-Jan-04 21:00N 56°03' E 014°52'510.3
2018-Jan-04 20:30N 56°08' E 014°49'1 0.0
2018-Jan-03 07:19N 56°09' E 014°49'2 6.6
2018-Jan-03 07:00N 56°07' E 014°49'610.9
2018-Jan-03 06:30N 56°02' E 014°54'1912.1
2018-Jan-03 04:55N 55°44' E 014°46'1412.7
2018-Jan-03 03:50N 55°30' E 014°41'412.9
2018-Jan-03 03:30N 55°26' E 014°39'612.5
2018-Jan-03 03:00N 55°21' E 014°34'612.8
2018-Jan-03 02:30N 55°16' E 014°27'612.7
2018-Jan-03 02:00N 55°10' E 014°20'612.7
2018-Jan-03 01:30N 55°05' E 014°14'1212.7
2018-Jan-03 00:32N 54°55' E 014°02'212.7
2018-Jan-03 00:23N 54°53' E 014°00'612.6
2018-Jan-02 23:54N 54°47' E 013°58'7211.4
2018-Jan-02 17:37N 53°39' E 014°34'211.6
2018-Jan-02 17:26N 53°37' E 014°35'410.2
2018-Jan-02 17:00N 53°33' E 014°38'5 9.0
2018-Jan-02 16:30N 53°28' E 014°36'3 5.9
2018-Jan-02 16:00N 53°25' E 014°34'0 0.0
2018-Jan-02 15:30N 53°25' E 014°34'0 0.0
2018-Jan-02 15:00N 53°25' E 014°34'0 0.0
2018-Jan-02 14:28N 53°25' E 014°34'0 0.0
2018-Jan-02 13:55N 53°25' E 014°34'0 0.0
2018-Jan-02 13:28N 53°25' E 014°34'0 0.0
2018-Jan-02 12:55N 53°25' E 014°34'0 0.0
2018-Jan-02 12:28N 53°25' E 014°34'0 0.0
2018-Jan-02 11:58N 53°25' E 014°34'0 0.0
2018-Jan-02 11:28N 53°25' E 014°34'0 0.0
2018-Jan-02 10:58N 53°25' E 014°34'0 0.0
2018-Jan-02 10:31N 53°25' E 014°34'0 0.0
2018-Jan-02 10:01N 53°25' E 014°34'  
Track history (hours):
 
Tides and Currents Weather Stations Pressure Air Temp Water Temp Dewpoint Dewpoint Depression Visibility Wind Speed Wind Dir Waves Ship Positions

Antonia B

Last reported at 2018-Jan-12 09:41 UTC. Time now 2018-Jan-19 02:03 UTC.
Position N 51°24' E 000°33'.

Length 97 m; draft 4.4 m.

Type: Cargo ship. MMSI: 305201000.

Date/timePositionNaut miles runAvg speedWind from/ knotsBaromVisibWave heightAir tempDewpointWater temp
2018-Jan-12 09:41N 51°24' E 000°33'0 0.0
2018-Jan-12 09:14N 51°24' E 000°33'0 0.0
2018-Jan-12 07:47N 51°24' E 000°33'0 0.0
2018-Jan-12 07:17N 51°24' E 000°33'0 0.0
2018-Jan-12 06:59N 51°24' E 000°33'0 0.0
2018-Jan-12 06:26N 51°24' E 000°33'0 0.0
2018-Jan-12 05:50N 51°24' E 000°33'0 0.0
2018-Jan-12 05:23N 51°24' E 000°33'0 0.0
2018-Jan-12 04:58N 51°24' E 000°33'0 0.0
2018-Jan-12 03:10N 51°24' E 000°33'0 0.0
2018-Jan-12 02:58N 51°24' E 000°33'0 0.0
2018-Jan-12 02:16N 51°24' E 000°33'0 0.0
2018-Jan-12 01:40N 51°24' E 000°33'0 0.0
2018-Jan-12 01:28N 51°24' E 000°33'0 0.0
2018-Jan-12 00:58N 51°24' E 000°33'0 0.0
2018-Jan-12 00:16N 51°24' E 000°33'0 0.0
2018-Jan-11 23:52N 51°24' E 000°33'0 0.0
2018-Jan-11 23:16N 51°24' E 000°33'0 0.0
2018-Jan-11 22:46N 51°24' E 000°33'0 0.0
2018-Jan-11 22:25N 51°24' E 000°33'0 0.4
2018-Jan-11 21:58N 51°24' E 000°33'0 0.0
2018-Jan-11 21:28N 51°24' E 000°33'0 0.0
2018-Jan-11 20:58N 51°24' E 000°33'0 0.0
2018-Jan-11 20:28N 51°24' E 000°33'0 0.0
2018-Jan-11 19:58N 51°24' E 000°33'0 0.0
2018-Jan-11 19:28N 51°24' E 000°33'0 0.0
2018-Jan-11 18:58N 51°24' E 000°33'0 0.0
2018-Jan-11 18:28N 51°24' E 000°33'0 0.0
2018-Jan-11 17:58N 51°24' E 000°33'0 0.0
2018-Jan-11 17:28N 51°24' E 000°33'0 0.0
2018-Jan-11 16:58N 51°24' E 000°33'0 0.0
2018-Jan-11 16:28N 51°24' E 000°33'0 0.0
2018-Jan-11 15:55N 51°24' E 000°33'0 0.0
2018-Jan-11 15:28N 51°24' E 000°33'0 0.0
2018-Jan-11 14:55N 51°24' E 000°33'0 0.0
2018-Jan-11 14:28N 51°24' E 000°33'0 0.0
2018-Jan-11 13:58N 51°24' E 000°33'0 0.0
2018-Jan-11 13:28N 51°24' E 000°33'0 0.0
2018-Jan-11 12:52N 51°24' E 000°33'0 0.0
2018-Jan-11 12:28N 51°24' E 000°33'0 0.0
2018-Jan-11 11:58N 51°24' E 000°33'  
2018-Jan-08 17:27N 51°27' E 000°44'3 2.2
2018-Jan-08 15:53N 51°28' E 000°50'512.0
2018-Jan-08 15:30N 51°29' E 000°57'714.1
2018-Jan-08 15:00N 51°29' E 001°08'713.8
2018-Jan-08 14:30N 51°29' E 001°19'612.8
2018-Jan-08 14:00N 51°27' E 001°29'4 8.5
2018-Jan-08 13:30N 51°23' E 001°33'4 7.5
2018-Jan-08 13:00N 51°27' E 001°34'4 8.9
2018-Jan-08 12:30N 51°30' E 001°39'4 8.4
2018-Jan-08 12:00N 51°31' E 001°46'4 8.6
2018-Jan-08 11:30N 51°33' E 001°52'5 9.1
2018-Jan-08 11:00N 51°35' E 001°59'2 3.6
2018-Jan-08 10:30N 51°34' E 001°56'2 5.0
2018-Jan-08 10:00N 51°33' E 001°52'3 5.1
2018-Jan-08 09:30N 51°32' E 001°48'3 5.3
2018-Jan-08 09:00N 51°31' E 001°44'2 3.3
2018-Jan-08 08:30N 51°31' E 001°42'3 5.9
2018-Jan-08 08:00N 51°33' E 001°45'3 5.9
2018-Jan-08 07:30N 51°36' E 001°48'3 5.9
2018-Jan-08 07:00N 51°38' E 001°51'3 5.4
2018-Jan-08 06:30N 51°40' E 001°54'3 5.2
2018-Jan-08 06:00N 51°42' E 001°57'1 2.3
2018-Jan-08 05:28N 51°41' E 001°56'2 5.0
2018-Jan-08 05:00N 51°39' E 001°54'2 4.5
2018-Jan-08 04:30N 51°37' E 001°52'2 3.8
2018-Jan-08 04:00N 51°35' E 001°50'2 3.5
2018-Jan-08 03:31N 51°34' E 001°48'2 3.0
2018-Jan-08 03:00N 51°33' E 001°47'0 0.7
2018-Jan-08 02:30N 51°32' E 001°47'4 8.2
2018-Jan-08 02:00N 51°36' E 001°49'1 2.1
2018-Jan-08 01:30N 51°35' E 001°50'1 2.0
2018-Jan-08 01:00N 51°34' E 001°50'1 1.3
2018-Jan-08 00:30N 51°34' E 001°50'1 1.3
2018-Jan-08 00:00N 51°34' E 001°49'1 1.2
2018-Jan-07 23:31N 51°34' E 001°48'1 1.4
2018-Jan-07 23:00N 51°33' E 001°47'1 1.7
2018-Jan-07 22:30N 51°33' E 001°46'1 1.8
2018-Jan-07 22:00N 51°32' E 001°44'1 1.9
2018-Jan-07 21:30N 51°32' E 001°43'3 5.6
2018-Jan-07 21:00N 51°33' E 001°47'4 7.4
2018-Jan-07 20:30N 51°35' E 001°52'3 6.9
2018-Jan-07 20:00N 51°37' E 001°57'3 6.7
2018-Jan-07 19:30N 51°40' E 002°00'3 6.2
2018-Jan-07 19:00N 51°42' E 002°03'1 2.5
2018-Jan-07 18:31N 51°41' E 002°02'2 3.5
2018-Jan-07 18:00N 51°40' E 001°59'2 3.7
2018-Jan-07 17:30N 51°39' E 001°57'2 3.9
2018-Jan-07 17:00N 51°38' E 001°54'2 3.5
2018-Jan-07 16:30N 51°37' E 001°52'2 3.1
2018-Jan-07 16:00N 51°37' E 001°50'1 2.5
2018-Jan-07 15:31N 51°36' E 001°48'1 2.3
2018-Jan-07 15:00N 51°35' E 001°47'1 2.3
2018-Jan-07 14:30N 51°34' E 001°47'1 1.9
2018-Jan-07 14:00N 51°33' E 001°47'1 1.7
2018-Jan-07 13:30N 51°32' E 001°47'1 1.3
2018-Jan-07 13:00N 51°31' E 001°46'1 2.1
2018-Jan-07 12:30N 51°31' E 001°44'1 1.3
2018-Jan-07 12:00N 51°31' E 001°44'1 1.6
2018-Jan-07 11:31N 51°30' E 001°43'2 3.5
2018-Jan-07 11:00N 51°31' E 001°45'4 8.8
2018-Jan-07 10:30N 51°34' E 001°50'2 3.7
2018-Jan-07 10:00N 51°36' E 001°52'1 2.5
2018-Jan-07 09:30N 51°35' E 001°50'2 3.2
2018-Jan-07 09:00N 51°36' E 001°52'3 6.8
2018-Jan-07 08:30N 51°39' E 001°56'4 8.5
2018-Jan-07 08:00N 51°42' E 002°01'5 9.3
2018-Jan-07 07:29N 51°46' E 002°06'13910.4
2018-Jan-06 18:06N 53°28' E 004°40'112.4
2018-Jan-06 17:59N 53°29' E 004°42'612.8
2018-Jan-06 17:28N 53°31' E 004°52'613.3
2018-Jan-06 17:00N 53°33' E 005°02'10012.2
2018-Jan-06 08:50N 54°01' E 007°44'412.7
2018-Jan-06 08:30N 54°01' E 007°52'612.3
2018-Jan-06 08:00N 54°01' E 008°02'712.5
2018-Jan-06 07:27N 54°00' E 008°14'613.6
2018-Jan-06 06:59N 53°59' E 008°24'715.1
2018-Jan-06 06:30N 53°58' E 008°36'815.5
2018-Jan-06 06:00N 53°52' E 008°45'713.2
2018-Jan-06 05:30N 53°51' E 008°56'612.4
2018-Jan-06 05:01N 53°53' E 009°06'2 4.0
2018-Jan-06 04:31N 53°54' E 009°09'0 0.0
2018-Jan-06 04:00N 53°54' E 009°09'1 1.6
2018-Jan-06 03:31N 53°54' E 009°10'1 1.3
2018-Jan-06 03:01N 53°55' E 009°11'3 5.5
2018-Jan-06 02:30N 53°57' E 009°14'3 6.6
2018-Jan-06 02:01N 53°59' E 009°17'3 6.5
2018-Jan-06 01:30N 54°02' E 009°18'3 5.8
2018-Jan-06 00:59N 54°05' E 009°19'3 6.5
2018-Jan-06 00:30N 54°08' E 009°21'1 2.0
2018-Jan-06 00:00N 54°09' E 009°22'0 0.0
2018-Jan-05 23:30N 54°09' E 009°22'0 0.8
2018-Jan-05 23:00N 54°09' E 009°23'3 5.2
2018-Jan-05 22:30N 54°10' E 009°27'3 6.8
2018-Jan-05 22:00N 54°12' E 009°32'3 6.9
2018-Jan-05 21:30N 54°14' E 009°36'3 6.3
2018-Jan-05 21:00N 54°17' E 009°38'3 6.1
2018-Jan-05 20:30N 54°19' E 009°43'3 6.3
2018-Jan-05 20:00N 54°21' E 009°46'7 6.1
2018-Jan-05 18:50N 54°21' E 009°58'25 7.2
2018-Jan-05 15:24N 54°34' E 010°34'410.2
2018-Jan-05 15:00N 54°35' E 010°40'510.7
2018-Jan-05 14:30N 54°35' E 010°50'510.8
2018-Jan-05 14:00N 54°36' E 010°59'510.9
2018-Jan-05 13:30N 54°36' E 011°08'511.0
2018-Jan-05 13:00N 54°35' E 011°17'611.1
2018-Jan-05 12:30N 54°33' E 011°26'510.3
2018-Jan-05 12:00N 54°31' E 011°35'510.8
2018-Jan-05 11:30N 54°29' E 011°43'15 9.8
2018-Jan-05 10:01N 54°28' E 012°08'0 9.8
2018-Jan-05 10:00N 54°28' E 012°09'5 9.6
2018-Jan-05 09:30N 54°32' E 012°12'510.2
2018-Jan-05 09:00N 54°37' E 012°15'5 9.8
2018-Jan-05 08:30N 54°40' E 012°21'5610.8
2018-Jan-05 03:17N 55°02' E 013°51'511.8
2018-Jan-05 02:53N 55°04' E 013°59'511.2
2018-Jan-05 02:27N 55°06' E 014°06'811.8
2018-Jan-05 01:44N 55°13' E 014°15'312.2
2018-Jan-05 01:30N 55°15' E 014°18'612.0
2018-Jan-05 01:00N 55°20' E 014°25'611.9
2018-Jan-05 00:28N 55°25' E 014°31'511.6
2018-Jan-05 00:00N 55°30' E 014°34'712.1
2018-Jan-04 23:24N 55°37' E 014°39'2211.7
2018-Jan-04 21:31N 55°58' E 014°52'111.2
2018-Jan-04 21:26N 55°58' E 014°53'510.8
2018-Jan-04 21:00N 56°03' E 014°52'510.3
2018-Jan-04 20:30N 56°08' E 014°49'1 0.0
2018-Jan-03 07:19N 56°09' E 014°49'2 6.6
2018-Jan-03 07:00N 56°07' E 014°49'610.9
2018-Jan-03 06:30N 56°02' E 014°54'1912.1
2018-Jan-03 04:55N 55°44' E 014°46'1412.7
2018-Jan-03 03:50N 55°30' E 014°41'412.9
2018-Jan-03 03:30N 55°26' E 014°39'612.5
2018-Jan-03 03:00N 55°21' E 014°34'612.8
2018-Jan-03 02:30N 55°16' E 014°27'612.7
2018-Jan-03 02:00N 55°10' E 014°20'612.7
2018-Jan-03 01:30N 55°05' E 014°14'1212.7
2018-Jan-03 00:32N 54°55' E 014°02'212.7
2018-Jan-03 00:23N 54°53' E 014°00'612.6
2018-Jan-02 23:54N 54°47' E 013°58'7211.4
2018-Jan-02 17:37N 53°39' E 014°34'211.6
2018-Jan-02 17:26N 53°37' E 014°35'410.2
2018-Jan-02 17:00N 53°33' E 014°38'5 9.0
2018-Jan-02 16:30N 53°28' E 014°36'3 5.9
2018-Jan-02 16:00N 53°25' E 014°34'0 0.0
2018-Jan-02 15:30N 53°25' E 014°34'0 0.0
2018-Jan-02 15:00N 53°25' E 014°34'0 0.0
2018-Jan-02 14:28N 53°25' E 014°34'0 0.0
2018-Jan-02 13:55N 53°25' E 014°34'0 0.0
2018-Jan-02 13:28N 53°25' E 014°34'0 0.0
2018-Jan-02 12:55N 53°25' E 014°34'0 0.0
2018-Jan-02 12:28N 53°25' E 014°34'0 0.0
2018-Jan-02 11:58N 53°25' E 014°34'0 0.0
2018-Jan-02 11:28N 53°25' E 014°34'0 0.0
2018-Jan-02 10:58N 53°25' E 014°34'0 0.0
2018-Jan-02 10:31N 53°25' E 014°34'0 0.0
2018-Jan-02 10:01N 53°25' E 014°34'  

Dump ship's entire track history